sensor_id;sensor_type;location;lat;lon;timestamp;P1;durP1;ratioP1;P2;durP2;ratioP2
80392;SDS011;69719;45.544;10.218;2023-12-29T00:00:05;50.13;;;37.22;;
80392;SDS011;69719;45.544;10.218;2023-12-29T00:02:31;51.50;;;38.38;;
80392;SDS011;69719;45.544;10.218;2023-12-29T00:04:56;49.15;;;38.13;;
80392;SDS011;69719;45.544;10.218;2023-12-29T00:07:22;55.25;;;39.20;;
80392;SDS011;69719;45.544;10.218;2023-12-29T00:09:47;51.70;;;38.75;;
80392;SDS011;69719;45.544;10.218;2023-12-29T00:12:13;48.60;;;38.92;;
80392;SDS011;69719;45.544;10.218;2023-12-29T00:14:39;54.42;;;40.38;;
80392;SDS011;69719;45.544;10.218;2023-12-29T00:17:05;56.47;;;42.28;;
80392;SDS011;69719;45.544;10.218;2023-12-29T00:19:30;56.90;;;43.17;;
80392;SDS011;69719;45.544;10.218;2023-12-29T00:21:56;52.67;;;42.45;;
80392;SDS011;69719;45.544;10.218;2023-12-29T00:24:21;59.45;;;43.95;;
80392;SDS011;69719;45.544;10.218;2023-12-29T00:26:47;58.25;;;43.83;;
80392;SDS011;69719;45.544;10.218;2023-12-29T00:29:14;60.72;;;45.90;;
80392;SDS011;69719;45.544;10.218;2023-12-29T00:31:40;55.17;;;46.58;;
80392;SDS011;69719;45.544;10.218;2023-12-29T00:34:06;60.05;;;47.25;;
80392;SDS011;69719;45.544;10.218;2023-12-29T00:36:32;60.20;;;47.13;;
80392;SDS011;69719;45.544;10.218;2023-12-29T00:38:57;57.65;;;45.83;;
80392;SDS011;69719;45.544;10.218;2023-12-29T00:41:23;62.83;;;43.72;;
80392;SDS011;69719;45.544;10.218;2023-12-29T00:43:48;59.53;;;45.10;;
80392;SDS011;69719;45.544;10.218;2023-12-29T00:46:14;61.83;;;43.88;;
80392;SDS011;69719;45.544;10.218;2023-12-29T00:48:43;57.22;;;42.72;;
80392;SDS011;69719;45.544;10.218;2023-12-29T00:51:08;58.33;;;41.00;;
80392;SDS011;69719;45.544;10.218;2023-12-29T00:53:34;57.95;;;41.72;;
80392;SDS011;69719;45.544;10.218;2023-12-29T00:56:00;58.60;;;40.65;;
80392;SDS011;69719;45.544;10.218;2023-12-29T00:58:26;53.63;;;37.58;;
80392;SDS011;69719;45.544;10.218;2023-12-29T01:00:52;53.03;;;38.65;;
80392;SDS011;69719;45.544;10.218;2023-12-29T01:03:17;55.63;;;38.38;;
80392;SDS011;69719;45.544;10.218;2023-12-29T01:05:43;51.95;;;38.05;;
80392;SDS011;69719;45.544;10.218;2023-12-29T01:08:08;49.25;;;38.25;;
80392;SDS011;69719;45.544;10.218;2023-12-29T01:10:34;50.70;;;36.15;;
80392;SDS011;69719;45.544;10.218;2023-12-29T01:12:59;46.80;;;35.20;;
80392;SDS011;69719;45.544;10.218;2023-12-29T01:15:25;51.42;;;37.42;;
80392;SDS011;69719;45.544;10.218;2023-12-29T01:17:50;48.85;;;35.90;;
80392;SDS011;69719;45.544;10.218;2023-12-29T01:20:16;49.05;;;36.88;;
80392;SDS011;69719;45.544;10.218;2023-12-29T01:22:42;46.85;;;35.53;;
80392;SDS011;69719;45.544;10.218;2023-12-29T01:25:07;48.83;;;37.05;;
80392;SDS011;69719;45.544;10.218;2023-12-29T01:27:33;51.15;;;36.70;;
80392;SDS011;69719;45.544;10.218;2023-12-29T01:29:58;45.10;;;33.75;;
80392;SDS011;69719;45.544;10.218;2023-12-29T01:32:25;48.30;;;35.25;;
80392;SDS011;69719;45.544;10.218;2023-12-29T01:34:51;44.92;;;32.70;;
80392;SDS011;69719;45.544;10.218;2023-12-29T01:37:17;45.45;;;34.80;;
80392;SDS011;69719;45.544;10.218;2023-12-29T01:39:43;51.22;;;35.70;;
80392;SDS011;69719;45.544;10.218;2023-12-29T01:42:08;47.63;;;34.85;;
80392;SDS011;69719;45.544;10.218;2023-12-29T01:44:35;47.22;;;33.97;;
80392;SDS011;69719;45.544;10.218;2023-12-29T01:47:01;47.30;;;33.67;;
80392;SDS011;69719;45.544;10.218;2023-12-29T01:49:31;48.67;;;33.28;;
80392;SDS011;69719;45.544;10.218;2023-12-29T01:51:59;45.53;;;33.35;;
80392;SDS011;69719;45.544;10.218;2023-12-29T01:54:28;45.53;;;34.53;;
80392;SDS011;69719;45.544;10.218;2023-12-29T01:56:58;55.55;;;35.55;;
80392;SDS011;69719;45.544;10.218;2023-12-29T01:59:25;56.97;;;33.97;;
80392;SDS011;69719;45.544;10.218;2023-12-29T02:01:53;48.05;;;35.53;;
80392;SDS011;69719;45.544;10.218;2023-12-29T02:04:22;45.08;;;32.65;;
80392;SDS011;69719;45.544;10.218;2023-12-29T02:06:49;45.70;;;33.22;;
80392;SDS011;69719;45.544;10.218;2023-12-29T02:09:16;44.42;;;30.58;;
80392;SDS011;69719;45.544;10.218;2023-12-29T02:11:44;45.78;;;33.53;;
80392;SDS011;69719;45.544;10.218;2023-12-29T02:14:10;47.67;;;31.92;;
80392;SDS011;69719;45.544;10.218;2023-12-29T02:19:46;43.88;;;31.45;;
80392;SDS011;69719;45.544;10.218;2023-12-29T02:22:15;46.55;;;30.92;;
80392;SDS011;69719;45.544;10.218;2023-12-29T02:24:58;42.38;;;30.30;;
80392;SDS011;69719;45.544;10.218;2023-12-29T02:33:16;40.75;;;28.52;;
80392;SDS011;69719;45.544;10.218;2023-12-29T02:35:45;43.15;;;30.23;;
80392;SDS011;69719;45.544;10.218;2023-12-29T02:38:14;40.00;;;30.08;;
80392;SDS011;69719;45.544;10.218;2023-12-29T02:40:40;40.55;;;30.17;;
80392;SDS011;69719;45.544;10.218;2023-12-29T02:43:08;40.47;;;30.00;;
80392;SDS011;69719;45.544;10.218;2023-12-29T02:45:34;38.05;;;27.65;;
80392;SDS011;69719;45.544;10.218;2023-12-29T02:47:59;45.42;;;31.10;;
80392;SDS011;69719;45.544;10.218;2023-12-29T02:50:25;40.78;;;29.52;;
80392;SDS011;69719;45.544;10.218;2023-12-29T02:52:50;44.63;;;29.02;;
80392;SDS011;69719;45.544;10.218;2023-12-29T02:55:16;40.88;;;28.27;;
80392;SDS011;69719;45.544;10.218;2023-12-29T02:57:41;43.22;;;29.63;;
80392;SDS011;69719;45.544;10.218;2023-12-29T03:00:07;43.05;;;30.02;;
80392;SDS011;69719;45.544;10.218;2023-12-29T03:02:33;42.70;;;30.88;;
80392;SDS011;69719;45.544;10.218;2023-12-29T03:04:59;42.70;;;30.52;;
80392;SDS011;69719;45.544;10.218;2023-12-29T03:07:24;43.63;;;30.73;;
80392;SDS011;69719;45.544;10.218;2023-12-29T03:09:50;39.70;;;30.00;;
80392;SDS011;69719;45.544;10.218;2023-12-29T03:12:15;49.22;;;29.27;;
80392;SDS011;69719;45.544;10.218;2023-12-29T03:14:41;45.88;;;31.27;;
80392;SDS011;69719;45.544;10.218;2023-12-29T03:17:07;43.95;;;30.02;;
80392;SDS011;69719;45.544;10.218;2023-12-29T03:19:32;43.13;;;28.88;;
80392;SDS011;69719;45.544;10.218;2023-12-29T03:21:58;41.75;;;30.60;;
80392;SDS011;69719;45.544;10.218;2023-12-29T03:24:24;38.83;;;28.15;;
80392;SDS011;69719;45.544;10.218;2023-12-29T03:26:49;41.30;;;30.80;;
80392;SDS011;69719;45.544;10.218;2023-12-29T03:29:15;37.75;;;27.60;;
80392;SDS011;69719;45.544;10.218;2023-12-29T03:31:40;45.55;;;28.77;;
80392;SDS011;69719;45.544;10.218;2023-12-29T03:34:06;40.70;;;29.20;;
80392;SDS011;69719;45.544;10.218;2023-12-29T03:36:32;40.83;;;29.17;;
80392;SDS011;69719;45.544;10.218;2023-12-29T03:38:57;42.80;;;28.73;;
80392;SDS011;69719;45.544;10.218;2023-12-29T03:41:23;39.58;;;28.90;;
80392;SDS011;69719;45.544;10.218;2023-12-29T03:43:48;42.90;;;28.25;;
80392;SDS011;69719;45.544;10.218;2023-12-29T03:48:46;40.30;;;29.00;;
80392;SDS011;69719;45.544;10.218;2023-12-29T03:51:12;38.80;;;29.25;;
80392;SDS011;69719;45.544;10.218;2023-12-29T03:53:37;187.75;;;42.20;;
80392;SDS011;69719;45.544;10.218;2023-12-29T03:56:12;54.05;;;29.23;;
80392;SDS011;69719;45.544;10.218;2023-12-29T03:58:40;94.68;;;34.17;;
80392;SDS011;69719;45.544;10.218;2023-12-29T04:01:09;54.15;;;29.60;;
80392;SDS011;69719;45.544;10.218;2023-12-29T04:03:36;41.65;;;29.60;;
80392;SDS011;69719;45.544;10.218;2023-12-29T04:06:02;46.88;;;29.38;;
80392;SDS011;69719;45.544;10.218;2023-12-29T04:08:28;47.75;;;32.33;;
80392;SDS011;69719;45.544;10.218;2023-12-29T04:10:53;44.05;;;32.30;;
80392;SDS011;69719;45.544;10.218;2023-12-29T04:13:19;42.72;;;32.58;;
80392;SDS011;69719;45.544;10.218;2023-12-29T04:15:44;45.05;;;32.90;;
80392;SDS011;69719;45.544;10.218;2023-12-29T04:18:10;46.65;;;34.00;;
80392;SDS011;69719;45.544;10.218;2023-12-29T04:20:35;45.75;;;33.47;;
80392;SDS011;69719;45.544;10.218;2023-12-29T04:23:01;51.28;;;35.97;;
80392;SDS011;69719;45.544;10.218;2023-12-29T04:25:26;47.20;;;35.17;;
80392;SDS011;69719;45.544;10.218;2023-12-29T04:27:52;50.40;;;36.90;;
80392;SDS011;69719;45.544;10.218;2023-12-29T04:30:17;48.00;;;34.88;;
80392;SDS011;69719;45.544;10.218;2023-12-29T04:32:43;51.63;;;36.42;;
80392;SDS011;69719;45.544;10.218;2023-12-29T04:35:08;49.60;;;35.38;;
80392;SDS011;69719;45.544;10.218;2023-12-29T04:37:37;47.53;;;35.05;;
80392;SDS011;69719;45.544;10.218;2023-12-29T04:40:03;53.17;;;34.50;;
80392;SDS011;69719;45.544;10.218;2023-12-29T04:42:30;50.70;;;35.63;;
80392;SDS011;69719;45.544;10.218;2023-12-29T04:44:55;49.65;;;35.53;;
80392;SDS011;69719;45.544;10.218;2023-12-29T04:47:21;48.88;;;34.50;;
80392;SDS011;69719;45.544;10.218;2023-12-29T04:49:46;52.55;;;36.20;;
80392;SDS011;69719;45.544;10.218;2023-12-29T04:52:11;48.95;;;35.40;;
80392;SDS011;69719;45.544;10.218;2023-12-29T04:54:37;43.03;;;31.75;;
80392;SDS011;69719;45.544;10.218;2023-12-29T04:57:02;39.85;;;28.05;;
80392;SDS011;69719;45.544;10.218;2023-12-29T04:59:28;56.38;;;30.98;;
80392;SDS011;69719;45.544;10.218;2023-12-29T05:01:54;49.35;;;29.85;;
80392;SDS011;69719;45.544;10.218;2023-12-29T05:04:19;51.40;;;29.23;;
80392;SDS011;69719;45.544;10.218;2023-12-29T05:06:45;44.38;;;27.00;;
80392;SDS011;69719;45.544;10.218;2023-12-29T05:09:10;39.63;;;26.95;;
80392;SDS011;69719;45.544;10.218;2023-12-29T05:11:36;37.63;;;25.30;;
80392;SDS011;69719;45.544;10.218;2023-12-29T05:14:01;40.88;;;26.08;;
80392;SDS011;69719;45.544;10.218;2023-12-29T05:16:27;38.47;;;26.58;;
80392;SDS011;69719;45.544;10.218;2023-12-29T05:18:52;42.78;;;26.95;;
80392;SDS011;69719;45.544;10.218;2023-12-29T05:21:18;44.80;;;26.60;;
80392;SDS011;69719;45.544;10.218;2023-12-29T05:23:44;41.03;;;28.98;;
80392;SDS011;69719;45.544;10.218;2023-12-29T05:26:14;56.63;;;30.08;;
80392;SDS011;69719;45.544;10.218;2023-12-29T05:28:40;39.05;;;28.48;;
80392;SDS011;69719;45.544;10.218;2023-12-29T05:31:05;37.65;;;27.73;;
80392;SDS011;69719;45.544;10.218;2023-12-29T05:33:31;44.42;;;30.02;;
80392;SDS011;69719;45.544;10.218;2023-12-29T05:35:57;42.47;;;30.00;;
80392;SDS011;69719;45.544;10.218;2023-12-29T05:38:23;38.90;;;27.77;;
80392;SDS011;69719;45.544;10.218;2023-12-29T05:40:49;44.60;;;33.42;;
80392;SDS011;69719;45.544;10.218;2023-12-29T05:43:16;45.15;;;33.33;;
80392;SDS011;69719;45.544;10.218;2023-12-29T05:45:41;46.30;;;32.92;;
80392;SDS011;69719;45.544;10.218;2023-12-29T05:48:07;48.78;;;37.83;;
80392;SDS011;69719;45.544;10.218;2023-12-29T05:50:33;46.40;;;34.80;;
80392;SDS011;69719;45.544;10.218;2023-12-29T05:52:58;50.47;;;37.40;;
80392;SDS011;69719;45.544;10.218;2023-12-29T05:55:24;49.35;;;36.00;;
80392;SDS011;69719;45.544;10.218;2023-12-29T05:57:49;48.40;;;37.00;;
80392;SDS011;69719;45.544;10.218;2023-12-29T06:00:15;50.65;;;37.38;;
80392;SDS011;69719;45.544;10.218;2023-12-29T06:02:41;49.25;;;37.25;;
80392;SDS011;69719;45.544;10.218;2023-12-29T06:05:07;51.50;;;36.95;;
80392;SDS011;69719;45.544;10.218;2023-12-29T06:07:35;50.30;;;37.05;;
80392;SDS011;69719;45.544;10.218;2023-12-29T06:10:00;50.47;;;37.65;;
80392;SDS011;69719;45.544;10.218;2023-12-29T06:12:26;50.90;;;39.60;;
80392;SDS011;69719;45.544;10.218;2023-12-29T06:14:52;54.85;;;40.00;;
80392;SDS011;69719;45.544;10.218;2023-12-29T06:17:17;50.03;;;36.50;;
80392;SDS011;69719;45.544;10.218;2023-12-29T06:19:43;49.50;;;37.53;;
80392;SDS011;69719;45.544;10.218;2023-12-29T06:22:08;48.90;;;37.33;;
80392;SDS011;69719;45.544;10.218;2023-12-29T06:24:39;48.97;;;36.63;;
80392;SDS011;69719;45.544;10.218;2023-12-29T06:27:07;48.05;;;36.38;;
80392;SDS011;69719;45.544;10.218;2023-12-29T06:29:33;50.90;;;37.28;;
80392;SDS011;69719;45.544;10.218;2023-12-29T06:31:59;49.70;;;37.90;;
80392;SDS011;69719;45.544;10.218;2023-12-29T06:34:24;52.17;;;37.70;;
80392;SDS011;69719;45.544;10.218;2023-12-29T06:36:50;58.88;;;38.05;;
80392;SDS011;69719;45.544;10.218;2023-12-29T06:39:15;47.65;;;37.08;;
80392;SDS011;69719;45.544;10.218;2023-12-29T06:41:41;48.65;;;37.22;;
80392;SDS011;69719;45.544;10.218;2023-12-29T06:44:06;47.38;;;36.28;;
80392;SDS011;69719;45.544;10.218;2023-12-29T06:46:32;46.53;;;37.00;;
80392;SDS011;69719;45.544;10.218;2023-12-29T06:48:57;46.08;;;36.25;;
80392;SDS011;69719;45.544;10.218;2023-12-29T06:51:23;46.70;;;36.55;;
80392;SDS011;69719;45.544;10.218;2023-12-29T06:53:49;46.80;;;35.50;;
80392;SDS011;69719;45.544;10.218;2023-12-29T06:56:15;47.85;;;36.80;;
80392;SDS011;69719;45.544;10.218;2023-12-29T06:58:41;44.20;;;35.00;;
80392;SDS011;69719;45.544;10.218;2023-12-29T07:01:07;46.60;;;36.05;;
80392;SDS011;69719;45.544;10.218;2023-12-29T07:03:32;48.53;;;36.63;;
80392;SDS011;69719;45.544;10.218;2023-12-29T07:06:00;47.75;;;34.90;;
80392;SDS011;69719;45.544;10.218;2023-12-29T07:08:26;50.28;;;35.70;;
80392;SDS011;69719;45.544;10.218;2023-12-29T07:10:52;46.47;;;34.80;;
80392;SDS011;69719;45.544;10.218;2023-12-29T07:13:17;45.95;;;36.47;;
80392;SDS011;69719;45.544;10.218;2023-12-29T07:15:44;56.05;;;35.78;;
80392;SDS011;69719;45.544;10.218;2023-12-29T07:18:10;48.10;;;33.97;;
80392;SDS011;69719;45.544;10.218;2023-12-29T07:20:36;48.75;;;34.78;;
80392;SDS011;69719;45.544;10.218;2023-12-29T07:23:01;46.72;;;36.22;;
80392;SDS011;69719;45.544;10.218;2023-12-29T07:25:27;49.80;;;34.00;;
80392;SDS011;69719;45.544;10.218;2023-12-29T07:27:53;48.55;;;34.35;;
80392;SDS011;69719;45.544;10.218;2023-12-29T07:30:18;45.45;;;34.05;;
80392;SDS011;69719;45.544;10.218;2023-12-29T07:32:44;48.55;;;35.45;;
80392;SDS011;69719;45.544;10.218;2023-12-29T07:35:09;43.97;;;32.92;;
80392;SDS011;69719;45.544;10.218;2023-12-29T07:37:35;46.60;;;35.15;;
80392;SDS011;69719;45.544;10.218;2023-12-29T07:40:01;43.17;;;31.17;;
80392;SDS011;69719;45.544;10.218;2023-12-29T07:42:26;42.22;;;33.13;;
80392;SDS011;69719;45.544;10.218;2023-12-29T07:44:52;44.30;;;32.70;;
80392;SDS011;69719;45.544;10.218;2023-12-29T07:47:20;39.65;;;30.25;;
80392;SDS011;69719;45.544;10.218;2023-12-29T07:49:45;41.88;;;28.27;;
80392;SDS011;69719;45.544;10.218;2023-12-29T07:52:11;38.97;;;27.52;;
80392;SDS011;69719;45.544;10.218;2023-12-29T07:54:36;37.85;;;29.50;;
80392;SDS011;69719;45.544;10.218;2023-12-29T07:57:02;40.40;;;30.42;;
80392;SDS011;69719;45.544;10.218;2023-12-29T07:59:28;46.22;;;28.33;;
80392;SDS011;69719;45.544;10.218;2023-12-29T08:01:53;38.65;;;30.48;;
80392;SDS011;69719;45.544;10.218;2023-12-29T08:04:19;38.33;;;27.20;;
80392;SDS011;69719;45.544;10.218;2023-12-29T08:06:44;37.20;;;28.05;;
80392;SDS011;69719;45.544;10.218;2023-12-29T08:09:10;40.13;;;27.38;;
80392;SDS011;69719;45.544;10.218;2023-12-29T08:11:36;39.42;;;26.88;;
80392;SDS011;69719;45.544;10.218;2023-12-29T08:14:01;34.20;;;24.00;;
80392;SDS011;69719;45.544;10.218;2023-12-29T08:16:27;37.85;;;26.13;;
80392;SDS011;69719;45.544;10.218;2023-12-29T08:18:52;37.10;;;24.52;;
80392;SDS011;69719;45.544;10.218;2023-12-29T08:21:21;37.67;;;26.67;;
80392;SDS011;69719;45.544;10.218;2023-12-29T08:23:47;36.10;;;25.83;;
80392;SDS011;69719;45.544;10.218;2023-12-29T08:26:13;34.35;;;25.40;;
80392;SDS011;69719;45.544;10.218;2023-12-29T08:28:40;41.42;;;26.83;;
80392;SDS011;69719;45.544;10.218;2023-12-29T08:31:06;35.53;;;24.58;;
80392;SDS011;69719;45.544;10.218;2023-12-29T08:33:32;38.08;;;23.42;;
80392;SDS011;69719;45.544;10.218;2023-12-29T08:35:58;34.28;;;23.88;;
80392;SDS011;69719;45.544;10.218;2023-12-29T08:38:26;38.85;;;23.42;;
80392;SDS011;69719;45.544;10.218;2023-12-29T08:40:52;34.58;;;24.20;;
80392;SDS011;69719;45.544;10.218;2023-12-29T08:43:17;35.47;;;22.67;;
80392;SDS011;69719;45.544;10.218;2023-12-29T08:45:46;38.92;;;22.85;;
80392;SDS011;69719;45.544;10.218;2023-12-29T08:48:12;35.22;;;21.65;;
80392;SDS011;69719;45.544;10.218;2023-12-29T08:50:38;34.97;;;22.17;;
80392;SDS011;69719;45.544;10.218;2023-12-29T08:53:03;28.83;;;18.85;;
80392;SDS011;69719;45.544;10.218;2023-12-29T08:55:29;30.45;;;20.45;;
80392;SDS011;69719;45.544;10.218;2023-12-29T08:57:56;29.52;;;20.73;;
80392;SDS011;69719;45.544;10.218;2023-12-29T09:00:22;32.53;;;22.17;;
80392;SDS011;69719;45.544;10.218;2023-12-29T09:02:47;29.95;;;20.48;;
80392;SDS011;69719;45.544;10.218;2023-12-29T09:05:13;34.17;;;21.10;;
80392;SDS011;69719;45.544;10.218;2023-12-29T09:07:38;31.83;;;20.58;;
80392;SDS011;69719;45.544;10.218;2023-12-29T09:10:04;38.45;;;22.80;;
80392;SDS011;69719;45.544;10.218;2023-12-29T09:12:33;32.65;;;20.90;;
80392;SDS011;69719;45.544;10.218;2023-12-29T09:14:59;32.90;;;22.35;;
80392;SDS011;69719;45.544;10.218;2023-12-29T09:17:25;79.63;;;25.75;;
80392;SDS011;69719;45.544;10.218;2023-12-29T09:19:50;31.75;;;21.73;;
80392;SDS011;69719;45.544;10.218;2023-12-29T09:22:16;33.47;;;21.70;;
80392;SDS011;69719;45.544;10.218;2023-12-29T09:24:42;34.45;;;21.00;;
80392;SDS011;69719;45.544;10.218;2023-12-29T09:27:07;33.22;;;21.52;;
80392;SDS011;69719;45.544;10.218;2023-12-29T09:29:34;33.22;;;21.55;;
80392;SDS011;69719;45.544;10.218;2023-12-29T09:31:59;34.78;;;21.15;;
80392;SDS011;69719;45.544;10.218;2023-12-29T09:34:25;31.80;;;22.15;;
80392;SDS011;69719;45.544;10.218;2023-12-29T09:36:50;36.20;;;22.38;;
80392;SDS011;69719;45.544;10.218;2023-12-29T09:39:16;33.65;;;22.60;;
80392;SDS011;69719;45.544;10.218;2023-12-29T09:41:42;33.90;;;22.65;;
80392;SDS011;69719;45.544;10.218;2023-12-29T09:44:12;37.65;;;23.45;;
80392;SDS011;69719;45.544;10.218;2023-12-29T09:46:41;35.80;;;23.33;;
80392;SDS011;69719;45.544;10.218;2023-12-29T09:49:08;36.85;;;24.13;;
80392;SDS011;69719;45.544;10.218;2023-12-29T09:51:34;36.35;;;24.38;;
80392;SDS011;69719;45.544;10.218;2023-12-29T09:54:02;37.45;;;24.17;;
80392;SDS011;69719;45.544;10.218;2023-12-29T09:56:28;38.42;;;25.38;;
80392;SDS011;69719;45.544;10.218;2023-12-29T09:58:54;49.00;;;26.25;;
80392;SDS011;69719;45.544;10.218;2023-12-29T10:01:22;38.38;;;25.15;;
80392;SDS011;69719;45.544;10.218;2023-12-29T10:03:49;34.67;;;25.20;;
80392;SDS011;69719;45.544;10.218;2023-12-29T10:06:16;36.00;;;23.15;;
80392;SDS011;69719;45.544;10.218;2023-12-29T10:11:15;35.63;;;24.58;;
80392;SDS011;69719;45.544;10.218;2023-12-29T10:13:47;35.10;;;23.83;;
80392;SDS011;69719;45.544;10.218;2023-12-29T10:16:16;34.80;;;25.33;;
80392;SDS011;69719;45.544;10.218;2023-12-29T10:18:47;35.88;;;24.20;;
80392;SDS011;69719;45.544;10.218;2023-12-29T10:21:26;35.47;;;24.80;;
80392;SDS011;69719;45.544;10.218;2023-12-29T10:26:49;40.38;;;25.10;;
80392;SDS011;69719;45.544;10.218;2023-12-29T10:29:15;37.58;;;24.08;;
80392;SDS011;69719;45.544;10.218;2023-12-29T10:31:41;34.38;;;24.70;;
80392;SDS011;69719;45.544;10.218;2023-12-29T10:34:25;34.83;;;24.13;;
80392;SDS011;69719;45.544;10.218;2023-12-29T10:36:57;31.73;;;23.92;;
80392;SDS011;69719;45.544;10.218;2023-12-29T10:39:23;45.22;;;24.52;;
80392;SDS011;69719;45.544;10.218;2023-12-29T10:41:50;38.65;;;24.30;;
80392;SDS011;69719;45.544;10.218;2023-12-29T10:44:27;41.60;;;25.50;;
80392;SDS011;69719;45.544;10.218;2023-12-29T10:46:52;36.78;;;22.80;;
80392;SDS011;69719;45.544;10.218;2023-12-29T10:49:18;36.58;;;24.67;;
80392;SDS011;69719;45.544;10.218;2023-12-29T10:51:43;34.75;;;23.65;;
80392;SDS011;69719;45.544;10.218;2023-12-29T10:54:09;36.75;;;23.13;;
80392;SDS011;69719;45.544;10.218;2023-12-29T10:56:44;42.03;;;26.17;;
80392;SDS011;69719;45.544;10.218;2023-12-29T10:59:10;37.55;;;23.80;;
80392;SDS011;69719;45.544;10.218;2023-12-29T11:01:37;35.58;;;23.58;;
80392;SDS011;69719;45.544;10.218;2023-12-29T11:04:04;35.20;;;24.30;;
80392;SDS011;69719;45.544;10.218;2023-12-29T11:06:43;34.10;;;23.40;;
80392;SDS011;69719;45.544;10.218;2023-12-29T11:09:12;37.50;;;23.80;;
80392;SDS011;69719;45.544;10.218;2023-12-29T11:11:38;36.05;;;25.00;;
80392;SDS011;69719;45.544;10.218;2023-12-29T11:14:04;37.00;;;24.55;;
80392;SDS011;69719;45.544;10.218;2023-12-29T11:16:30;33.30;;;23.60;;
80392;SDS011;69719;45.544;10.218;2023-12-29T11:18:59;43.47;;;24.10;;
80392;SDS011;69719;45.544;10.218;2023-12-29T11:21:26;37.60;;;25.27;;
80392;SDS011;69719;45.544;10.218;2023-12-29T11:23:54;39.13;;;23.90;;
80392;SDS011;69719;45.544;10.218;2023-12-29T11:26:20;38.55;;;24.88;;
80392;SDS011;69719;45.544;10.218;2023-12-29T11:28:46;36.40;;;23.27;;
80392;SDS011;69719;45.544;10.218;2023-12-29T11:31:18;36.03;;;24.48;;
80392;SDS011;69719;45.544;10.218;2023-12-29T11:33:48;34.60;;;23.00;;
80392;SDS011;69719;45.544;10.218;2023-12-29T11:36:20;40.30;;;24.58;;
80392;SDS011;69719;45.544;10.218;2023-12-29T11:44:29;38.58;;;25.55;;
80392;SDS011;69719;45.544;10.218;2023-12-29T11:46:56;36.22;;;24.60;;
80392;SDS011;69719;45.544;10.218;2023-12-29T11:49:25;42.17;;;25.42;;
80392;SDS011;69719;45.544;10.218;2023-12-29T11:51:51;39.65;;;24.60;;
80392;SDS011;69719;45.544;10.218;2023-12-29T11:54:26;38.08;;;25.85;;
80392;SDS011;69719;45.544;10.218;2023-12-29T11:56:52;48.40;;;25.80;;
80392;SDS011;69719;45.544;10.218;2023-12-29T12:04:41;36.67;;;25.48;;
80392;SDS011;69719;45.544;10.218;2023-12-29T12:07:17;34.88;;;24.85;;
80392;SDS011;69719;45.544;10.218;2023-12-29T12:12:49;41.53;;;23.48;;
80392;SDS011;69719;45.544;10.218;2023-12-29T12:17:58;36.28;;;24.77;;
80392;SDS011;69719;45.544;10.218;2023-12-29T12:20:24;38.03;;;25.48;;
80392;SDS011;69719;45.544;10.218;2023-12-29T12:23:24;37.10;;;25.77;;
80392;SDS011;69719;45.544;10.218;2023-12-29T12:25:43;36.30;;;24.50;;
80392;SDS011;69719;45.544;10.218;2023-12-29T12:28:11;39.38;;;24.58;;
80392;SDS011;69719;45.544;10.218;2023-12-29T12:30:39;34.33;;;23.27;;
80392;SDS011;69719;45.544;10.218;2023-12-29T12:33:05;33.15;;;23.63;;
80392;SDS011;69719;45.544;10.218;2023-12-29T12:35:30;41.75;;;24.95;;
80392;SDS011;69719;45.544;10.218;2023-12-29T12:40:49;36.40;;;24.35;;
80392;SDS011;69719;45.544;10.218;2023-12-29T12:43:15;38.60;;;27.17;;
80392;SDS011;69719;45.544;10.218;2023-12-29T12:50:54;39.55;;;26.63;;
80392;SDS011;69719;45.544;10.218;2023-12-29T12:53:22;37.38;;;26.40;;
80392;SDS011;69719;45.544;10.218;2023-12-29T12:55:48;39.10;;;27.33;;
80392;SDS011;69719;45.544;10.218;2023-12-29T12:58:18;41.10;;;27.90;;
80392;SDS011;69719;45.544;10.218;2023-12-29T13:00:45;36.95;;;27.83;;
80392;SDS011;69719;45.544;10.218;2023-12-29T13:03:12;39.97;;;28.05;;
80392;SDS011;69719;45.544;10.218;2023-12-29T13:05:40;34.42;;;26.48;;
80392;SDS011;69719;45.544;10.218;2023-12-29T13:08:06;37.08;;;25.95;;
80392;SDS011;69719;45.544;10.218;2023-12-29T13:10:32;39.40;;;26.85;;
80392;SDS011;69719;45.544;10.218;2023-12-29T13:12:58;42.70;;;27.77;;
80392;SDS011;69719;45.544;10.218;2023-12-29T13:15:23;34.58;;;25.90;;
80392;SDS011;69719;45.544;10.218;2023-12-29T13:17:52;34.78;;;24.73;;
80392;SDS011;69719;45.544;10.218;2023-12-29T13:20:19;38.92;;;25.02;;
80392;SDS011;69719;45.544;10.218;2023-12-29T13:22:51;36.00;;;24.70;;
80392;SDS011;69719;45.544;10.218;2023-12-29T13:27:46;33.50;;;23.05;;
80392;SDS011;69719;45.544;10.218;2023-12-29T13:30:13;37.80;;;22.63;;
80392;SDS011;69719;45.544;10.218;2023-12-29T13:32:39;30.63;;;21.55;;
80392;SDS011;69719;45.544;10.218;2023-12-29T13:37:44;41.22;;;28.23;;
80392;SDS011;69719;45.544;10.218;2023-12-29T13:42:50;37.67;;;23.13;;
80392;SDS011;69719;45.544;10.218;2023-12-29T13:45:20;35.85;;;23.95;;
80392;SDS011;69719;45.544;10.218;2023-12-29T13:47:46;33.72;;;23.75;;
80392;SDS011;69719;45.544;10.218;2023-12-29T13:50:12;35.50;;;24.95;;
80392;SDS011;69719;45.544;10.218;2023-12-29T13:52:37;39.47;;;26.15;;
80392;SDS011;69719;45.544;10.218;2023-12-29T13:55:04;39.50;;;25.20;;
80392;SDS011;69719;45.544;10.218;2023-12-29T13:57:33;43.33;;;26.55;;
80392;SDS011;69719;45.544;10.218;2023-12-29T14:00:21;44.00;;;25.42;;
80392;SDS011;69719;45.544;10.218;2023-12-29T14:03:30;35.05;;;26.23;;
80392;SDS011;69719;45.544;10.218;2023-12-29T14:05:52;36.92;;;26.02;;
80392;SDS011;69719;45.544;10.218;2023-12-29T14:08:31;36.20;;;24.77;;
80392;SDS011;69719;45.544;10.218;2023-12-29T14:11:06;37.60;;;25.55;;
80392;SDS011;69719;45.544;10.218;2023-12-29T14:13:33;43.70;;;28.33;;
80392;SDS011;69719;45.544;10.218;2023-12-29T14:16:00;39.38;;;25.73;;
80392;SDS011;69719;45.544;10.218;2023-12-29T14:24:08;37.95;;;23.10;;
80392;SDS011;69719;45.544;10.218;2023-12-29T14:26:35;36.70;;;23.75;;
80392;SDS011;69719;45.544;10.218;2023-12-29T14:31:31;35.00;;;22.73;;
80392;SDS011;69719;45.544;10.218;2023-12-29T14:34:02;36.60;;;22.90;;
80392;SDS011;69719;45.544;10.218;2023-12-29T14:36:28;34.17;;;22.95;;
80392;SDS011;69719;45.544;10.218;2023-12-29T14:38:55;32.63;;;22.70;;
80392;SDS011;69719;45.544;10.218;2023-12-29T14:41:20;32.38;;;24.15;;
80392;SDS011;69719;45.544;10.218;2023-12-29T14:43:46;36.30;;;23.38;;
80392;SDS011;69719;45.544;10.218;2023-12-29T14:46:11;34.80;;;23.75;;
80392;SDS011;69719;45.544;10.218;2023-12-29T14:48:37;35.38;;;23.67;;
80392;SDS011;69719;45.544;10.218;2023-12-29T14:51:04;33.75;;;23.88;;
80392;SDS011;69719;45.544;10.218;2023-12-29T14:53:29;35.58;;;24.05;;
80392;SDS011;69719;45.544;10.218;2023-12-29T14:55:55;35.38;;;22.13;;
80392;SDS011;69719;45.544;10.218;2023-12-29T14:58:20;34.90;;;22.98;;
80392;SDS011;69719;45.544;10.218;2023-12-29T15:00:46;41.70;;;28.33;;
80392;SDS011;69719;45.544;10.218;2023-12-29T15:03:12;35.85;;;23.88;;